createdAt,value
2019-06-27T00:00:27.615Z,1016.74
2019-06-27T00:01:08.048Z,1016.76
2019-06-27T00:01:48.505Z,1016.77
2019-06-27T00:02:28.964Z,1016.77
2019-06-27T00:03:09.503Z,1016.77
2019-06-27T00:03:49.992Z,1016.74
2019-06-27T00:04:30.432Z,1016.73
2019-06-27T00:05:10.940Z,1016.74
2019-06-27T00:05:51.386Z,1016.74
2019-06-27T00:06:31.873Z,1016.73
2019-06-27T00:07:12.388Z,1016.74
2019-06-27T00:07:52.861Z,1016.77
2019-06-27T00:08:33.356Z,1016.76
2019-06-27T00:09:13.845Z,1016.77
2019-06-27T00:09:54.348Z,1016.76
2019-06-27T00:10:34.877Z,1016.74
2019-06-27T00:11:15.332Z,1016.72
2019-06-27T00:11:55.832Z,1016.73
2019-06-27T00:12:36.320Z,1016.73
2019-06-27T00:13:16.874Z,1016.75
2019-06-27T00:13:57.446Z,1016.75
2019-06-27T00:14:37.864Z,1016.76
2019-06-27T00:15:18.369Z,1016.75
2019-06-27T00:15:58.855Z,1016.76
2019-06-27T00:16:39.347Z,1016.74
2019-06-27T00:17:19.830Z,1016.76
2019-06-27T00:18:01.227Z,1016.78
2019-06-27T00:18:41.775Z,1016.77
2019-06-27T00:19:22.195Z,1016.77
2019-06-27T00:20:02.773Z,1016.77
2019-06-27T00:20:43.183Z,1016.76
2019-06-27T00:21:23.661Z,1016.77
2019-06-27T00:22:04.156Z,1016.8
2019-06-27T00:22:44.650Z,1016.77
2019-06-27T00:23:25.117Z,1016.81
2019-06-27T00:24:05.608Z,1016.86
2019-06-27T00:24:46.101Z,1016.83
2019-06-27T00:25:26.558Z,1016.82
2019-06-27T00:26:07.046Z,1016.83
2019-06-27T00:26:56.894Z,1016.82
2019-06-27T00:27:27.934Z,1016.85
2019-06-27T00:28:08.415Z,1016.87
2019-06-27T00:30:21.573Z,1016.87
2019-06-27T00:31:05.377Z,1016.85
2019-06-27T00:31:45.930Z,1016.79
2019-06-27T00:32:26.406Z,1016.84
2019-06-27T00:33:06.999Z,1016.82
2019-06-27T00:33:47.481Z,1016.82
2019-06-27T00:34:28.130Z,1016.78
2019-06-27T00:35:08.493Z,1016.79
2019-06-27T00:35:48.891Z,1016.83
2019-06-27T00:36:29.380Z,1016.87
2019-06-27T00:37:09.852Z,1016.84
2019-06-27T00:37:50.342Z,1016.82
2019-06-27T00:38:30.809Z,1016.81
2019-06-27T00:39:11.311Z,1016.81
2019-06-27T00:39:51.796Z,1016.85
2019-06-27T00:40:33.796Z,1016.81
2019-06-27T00:41:14.270Z,1016.84
2019-06-27T00:41:54.718Z,1016.83
2019-06-27T00:42:35.182Z,1016.82
2019-06-27T00:43:15.731Z,1016.84
2019-06-27T00:43:56.268Z,1016.85
2019-06-27T00:44:36.742Z,1016.82
2019-06-27T00:45:17.239Z,1016.84
2019-06-27T00:45:57.659Z,1016.82
2019-06-27T00:46:38.252Z,1016.82
2019-06-27T00:47:18.722Z,1016.81
2019-06-27T00:47:59.167Z,1016.82
2019-06-27T00:48:39.649Z,1016.8
2019-06-27T00:50:02.455Z,1016.81
2019-06-27T00:50:42.880Z,1016.82
2019-06-27T00:51:23.345Z,1016.87
2019-06-27T00:52:03.836Z,1016.85
2019-06-27T00:52:44.275Z,1016.83
2019-06-27T00:53:24.734Z,1016.86
2019-06-27T00:54:05.480Z,1016.84
2019-06-27T00:54:45.977Z,1016.82
2019-06-27T00:55:26.426Z,1016.83
2019-06-27T00:56:07.106Z,1016.72
2019-06-27T00:56:47.401Z,1016.84
2019-06-27T00:57:27.911Z,1016.79
2019-06-27T00:58:08.336Z,1016.79
2019-06-27T00:58:48.808Z,1016.76
2019-06-27T00:59:29.261Z,1016.82
2019-06-27T01:00:09.730Z,1016.81
2019-06-27T01:00:50.180Z,1016.8
2019-06-27T01:01:30.649Z,1016.81
2019-06-27T01:02:12.829Z,1016.85
2019-06-27T01:02:53.294Z,1016.86
2019-06-27T01:03:33.780Z,1016.85
2019-06-27T01:04:14.608Z,1016.86
2019-06-27T01:04:55.142Z,1016.85
2019-06-27T01:05:35.619Z,1016.85
2019-06-27T01:06:16.082Z,1016.89
2019-06-27T01:06:56.719Z,1016.88
2019-06-27T01:07:40.702Z,1016.87
2019-06-27T01:08:21.233Z,1016.88
2019-06-27T01:09:01.765Z,1016.89
2019-06-27T01:09:42.181Z,1016.89
2019-06-27T01:10:22.692Z,1016.89
2019-06-27T01:11:03.205Z,1016.87
2019-06-27T01:11:43.673Z,1016.94
2019-06-27T01:12:24.194Z,1016.93
2019-06-27T01:13:04.816Z,1016.88
2019-06-27T01:13:45.278Z,1016.96
2019-06-27T01:15:06.226Z,1016.92
2019-06-27T01:15:46.692Z,1016.9
2019-06-27T01:16:27.185Z,1016.93
2019-06-27T01:17:07.749Z,1016.91
2019-06-27T01:17:48.243Z,1016.93
2019-06-27T01:18:30.874Z,1016.9
2019-06-27T01:19:11.010Z,1016.83
2019-06-27T01:19:51.481Z,1016.86
2019-06-27T01:20:31.980Z,1016.9
2019-06-27T01:21:12.409Z,1016.86
2019-06-27T01:21:52.890Z,1016.9
2019-06-27T01:22:33.365Z,1016.87
2019-06-27T01:23:13.838Z,1016.87
2019-06-27T01:23:54.608Z,1016.89
2019-06-27T01:24:35.186Z,1016.91
2019-06-27T01:25:15.728Z,1016.88
2019-06-27T01:25:56.137Z,1016.93
2019-06-27T01:26:36.552Z,1016.88
2019-06-27T01:27:29.328Z,1016.88
2019-06-27T01:27:57.518Z,1016.92
2019-06-27T01:28:38.418Z,1016.89
2019-06-27T01:29:18.525Z,1016.89
2019-06-27T01:30:00.798Z,1016.92
2019-06-27T01:30:41.329Z,1016.89
2019-06-27T01:31:23.694Z,1016.91
2019-06-27T01:32:04.199Z,1016.92
2019-06-27T01:32:44.658Z,1016.91
2019-06-27T01:33:25.126Z,1016.91
2019-06-27T01:34:05.633Z,1016.89
2019-06-27T01:34:46.110Z,1016.91
2019-06-27T01:35:26.598Z,1016.91
2019-06-27T01:36:07.075Z,1016.9
2019-06-27T01:36:47.543Z,1016.89
2019-06-27T01:37:28.024Z,1016.87
2019-06-27T01:38:08.548Z,1016.86
2019-06-27T01:38:48.967Z,1016.87
2019-06-27T01:40:09.938Z,1016.89
2019-06-27T01:40:50.438Z,1016.87
2019-06-27T01:41:33.017Z,1016.91
2019-06-27T01:42:13.443Z,1016.92
2019-06-27T01:42:53.962Z,1016.94
2019-06-27T01:43:34.435Z,1016.98
2019-06-27T01:44:15.637Z,1016.89
2019-06-27T01:44:56.281Z,1016.93
2019-06-27T01:45:36.817Z,1016.94
2019-06-27T01:46:17.336Z,1016.92
2019-06-27T01:46:57.741Z,1016.94
2019-06-27T01:47:38.283Z,1016.93
2019-06-27T01:48:18.737Z,1016.92
2019-06-27T01:48:59.211Z,1016.92
2019-06-27T01:49:39.681Z,1016.93
2019-06-27T01:50:20.285Z,1016.87
2019-06-27T01:51:00.860Z,1016.89
2019-06-27T01:51:41.260Z,1016.91
2019-06-27T01:52:21.785Z,1016.93
2019-06-27T01:53:02.302Z,1016.9
2019-06-27T01:53:42.738Z,1016.92
2019-06-27T01:54:23.207Z,1016.93
2019-06-27T01:55:03.723Z,1016.94
2019-06-27T01:55:44.206Z,1016.94
2019-06-27T01:56:24.662Z,1016.93
2019-06-27T01:57:05.151Z,1016.95
2019-06-27T01:57:47.150Z,1016.96
2019-06-27T01:58:26.115Z,1016.92
2019-06-27T01:59:06.699Z,1017
2019-06-27T01:59:47.262Z,1016.97
2019-06-27T02:00:29.196Z,1017.01
2019-06-27T02:01:09.664Z,1017
2019-06-27T02:01:50.154Z,1016.97
2019-06-27T02:02:30.647Z,1017
2019-06-27T02:03:11.128Z,1016.98
2019-06-27T02:03:51.587Z,1016.95
2019-06-27T02:04:34.427Z,1016.94
2019-06-27T02:05:14.918Z,1016.96
2019-06-27T02:05:55.442Z,1016.96
2019-06-27T02:06:35.868Z,1016.94
2019-06-27T02:07:16.344Z,1016.96
2019-06-27T02:07:56.848Z,1016.96
2019-06-27T02:08:37.471Z,1016.95
2019-06-27T02:09:17.990Z,1016.95
2019-06-27T02:10:00.145Z,1016.96
2019-06-27T02:10:40.572Z,1016.95
2019-06-27T02:11:21.025Z,1016.96
2019-06-27T02:12:01.505Z,1016.95
2019-06-27T02:12:41.975Z,1016.94
2019-06-27T02:13:22.514Z,1016.94
2019-06-27T02:14:03.025Z,1016.95
2019-06-27T02:15:23.983Z,1016.99
2019-06-27T02:16:04.533Z,1016.97
2019-06-27T02:16:44.942Z,1016.98
2019-06-27T02:17:25.601Z,1017.01
2019-06-27T02:18:06.056Z,1017.03
2019-06-27T02:18:46.547Z,1017.02
2019-06-27T02:19:27.034Z,1017.03
2019-06-27T02:20:07.484Z,1017.03
2019-06-27T02:20:47.944Z,1017.05
2019-06-27T02:21:28.428Z,1017.03
2019-06-27T02:22:08.896Z,1017.04
2019-06-27T02:22:49.378Z,1017.06
2019-06-27T02:23:29.838Z,1017.03
2019-06-27T02:24:10.312Z,1017.04
2019-06-27T02:24:50.803Z,1017.06
2019-06-27T02:25:31.260Z,1017.08
2019-06-27T02:26:11.765Z,1017.04
2019-06-27T02:26:52.516Z,1017.04
2019-06-27T02:27:32.747Z,1017.01
2019-06-27T02:28:13.235Z,1017.03
2019-06-27T02:28:53.708Z,1016.98
2019-06-27T02:29:34.215Z,1017.03
2019-06-27T02:30:14.708Z,1016.98
2019-06-27T02:30:55.186Z,1017.03
2019-06-27T02:31:35.680Z,1016.98
2019-06-27T02:32:16.193Z,1017.03
2019-06-27T02:32:56.639Z,1017.04
2019-06-27T02:33:37.115Z,1017.05
2019-06-27T02:34:17.598Z,1017.07
2019-06-27T02:34:58.089Z,1017.04
2019-06-27T02:35:38.672Z,1017.07
2019-06-27T02:36:19.049Z,1017.08
2019-06-27T02:37:01.113Z,1017.06
2019-06-27T02:37:41.575Z,1017.06
2019-06-27T02:38:22.063Z,1017.09
2019-06-27T02:39:02.546Z,1017.1
2019-06-27T02:40:23.545Z,1017.12
2019-06-27T02:41:04.014Z,1016.8
2019-06-27T02:41:44.509Z,1017.12
2019-06-27T02:42:25.023Z,1017.12
2019-06-27T02:43:05.438Z,1017.11
2019-06-27T02:43:45.892Z,1017.12
2019-06-27T02:44:26.387Z,1017.16
2019-06-27T02:45:06.877Z,1017.16
2019-06-27T02:45:47.325Z,1017.15
2019-06-27T02:46:27.794Z,1017.2
2019-06-27T02:47:08.273Z,1017.16
2019-06-27T02:47:48.755Z,1017.2
2019-06-27T02:48:29.249Z,1017.24
2019-06-27T02:49:09.787Z,1017.19
2019-06-27T02:49:50.905Z,1017.16
2019-06-27T02:50:30.754Z,1017.14
2019-06-27T02:51:11.240Z,1017.14
2019-06-27T02:51:51.708Z,1017.13
2019-06-27T02:52:32.192Z,1017.17
2019-06-27T02:53:12.683Z,1017.15
2019-06-27T02:53:53.163Z,1017.13
2019-06-27T02:54:33.685Z,1017.21
2019-06-27T02:55:14.119Z,1017.17
2019-06-27T02:55:54.577Z,1017.2
2019-06-27T02:56:35.066Z,1017.14
2019-06-27T02:57:56.027Z,1017.22
2019-06-27T02:58:36.529Z,1017.23
2019-06-27T02:59:17.029Z,1017.24
2019-06-27T02:59:57.488Z,1017.23
2019-06-27T03:00:37.968Z,1017.25
2019-06-27T03:01:18.449Z,1017.26
2019-06-27T03:01:58.953Z,1017.26
2019-06-27T03:02:39.427Z,1017.26
2019-06-27T03:03:19.929Z,1017.21
2019-06-27T03:04:00.429Z,1017.2
2019-06-27T03:04:41.009Z,1017.22
2019-06-27T03:05:21.522Z,1017.25
2019-06-27T03:06:01.930Z,1017.23
2019-06-27T03:06:44.287Z,1017.25
2019-06-27T03:07:24.712Z,1017.22
2019-06-27T03:08:05.169Z,1017.26
2019-06-27T03:08:45.638Z,1017.26
2019-06-27T03:09:26.078Z,1017.23
2019-06-27T03:10:08.449Z,1017.23
2019-06-27T03:10:48.901Z,1017.28
2019-06-27T03:11:29.390Z,1017.28
2019-06-27T03:12:09.867Z,1017.29
2019-06-27T03:12:50.354Z,1017.29
2019-06-27T03:13:30.807Z,1017.27
2019-06-27T03:14:11.354Z,1017.28
2019-06-27T03:14:51.844Z,1017.25
2019-06-27T03:15:32.311Z,1017.23
2019-06-27T03:16:12.796Z,1017.26
2019-06-27T03:16:53.292Z,1017.2
2019-06-27T03:17:33.796Z,1017.26
2019-06-27T03:18:14.299Z,1017.26
2019-06-27T03:18:54.783Z,1017.24
2019-06-27T03:19:35.266Z,1017.26
2019-06-27T03:20:15.744Z,1017.27
2019-06-27T03:20:56.219Z,1017.25
2019-06-27T03:21:38.375Z,1017.21
2019-06-27T03:22:18.863Z,1017.23
2019-06-27T03:22:59.337Z,1017.23
2019-06-27T03:23:39.786Z,1017.24
2019-06-27T03:24:20.422Z,1017.21
2019-06-27T03:25:02.742Z,1017.24
2019-06-27T03:25:43.241Z,1017.3
2019-06-27T03:26:23.672Z,1017.31
2019-06-27T03:27:04.137Z,1017.32
2019-06-27T03:27:44.619Z,1017.31
2019-06-27T03:28:25.091Z,1017.35
2019-06-27T03:29:05.554Z,1017.36
2019-06-27T03:29:46.051Z,1017.35
2019-06-27T03:30:26.532Z,1017.36
2019-06-27T03:31:07.048Z,1017.28
2019-06-27T03:31:47.461Z,1017.33
2019-06-27T03:32:27.972Z,1017.35
2019-06-27T03:33:08.545Z,1017.32
2019-06-27T03:33:49.032Z,1017.35
2019-06-27T03:34:29.558Z,1017.35
2019-06-27T03:35:10.103Z,1017.39
2019-06-27T03:35:50.549Z,1017.34
2019-06-27T03:36:31.055Z,1017.33
2019-06-27T03:37:11.501Z,1017.36
2019-06-27T03:37:52.051Z,1017.34
2019-06-27T03:38:32.498Z,1017.35
2019-06-27T03:39:13.082Z,1017.36
2019-06-27T03:39:53.640Z,1017.36
2019-06-27T03:40:35.870Z,1017.38
2019-06-27T03:41:18.118Z,1017.35
2019-06-27T03:41:58.613Z,1017.37
2019-06-27T03:42:40.161Z,1017.4
2019-06-27T03:43:20.583Z,1017.42
2019-06-27T03:44:01.037Z,1017.38
2019-06-27T03:44:41.492Z,1017.41
2019-06-27T03:45:21.984Z,1017.38
2019-06-27T03:46:02.449Z,1017.39
2019-06-27T03:46:42.918Z,1017.38
2019-06-27T03:47:23.407Z,1017.36
2019-06-27T03:48:03.907Z,1017.42
2019-06-27T03:48:44.374Z,1017.42
2019-06-27T03:49:24.888Z,1017.45
2019-06-27T03:50:45.833Z,1017.47
2019-06-27T03:51:26.322Z,1017.47
2019-06-27T03:52:06.795Z,1017.45
2019-06-27T03:52:47.285Z,1017.46
2019-06-27T03:53:27.818Z,1017.49
2019-06-27T03:54:08.255Z,1017.47
2019-06-27T03:54:48.740Z,1017.52
2019-06-27T03:55:29.303Z,1017.5
2019-06-27T03:56:09.736Z,1017.5
2019-06-27T03:56:50.227Z,1017.47
2019-06-27T03:58:16.594Z,1017.48
2019-06-27T03:59:11.121Z,1017.52
2019-06-27T03:59:37.487Z,1017.55
2019-06-27T04:00:17.963Z,1017.53
2019-06-27T04:00:58.604Z,1017.55
2019-06-27T04:01:39.033Z,1017.55
2019-06-27T04:02:19.503Z,1017.53
2019-06-27T04:03:00.415Z,1017.55
2019-06-27T04:03:42.917Z,1017.57
2019-06-27T04:04:21.381Z,1017.59
2019-06-27T04:05:43.965Z,1017.6
2019-06-27T04:06:24.446Z,1017.57
2019-06-27T04:07:04.939Z,1017.6
2019-06-27T04:07:47.251Z,1017.63
2019-06-27T04:08:27.783Z,1017.58
2019-06-27T04:09:08.259Z,1017.58
2019-06-27T04:09:50.592Z,1017.59
2019-06-27T04:10:30.971Z,1017.58
2019-06-27T04:11:11.488Z,1017.58
2019-06-27T04:11:51.929Z,1017.59
2019-06-27T04:12:32.561Z,1017.62
2019-06-27T04:13:13.021Z,1017.6
2019-06-27T04:13:53.516Z,1017.6
2019-06-27T04:14:33.995Z,1017.63
2019-06-27T04:15:14.480Z,1017.61
2019-06-27T04:15:55.062Z,1017.59
2019-06-27T04:16:35.769Z,1017.59
2019-06-27T04:17:16.199Z,1017.59
2019-06-27T04:17:56.732Z,1017.58
2019-06-27T04:18:38.920Z,1017.61
2019-06-27T04:19:19.424Z,1017.6
2019-06-27T04:19:59.914Z,1017.6
2019-06-27T04:20:40.372Z,1017.63
2019-06-27T04:21:20.879Z,1017.63
2019-06-27T04:22:01.352Z,1017.62
2019-06-27T04:22:41.919Z,1017.64
2019-06-27T04:23:22.384Z,1017.63
2019-06-27T04:24:02.867Z,1017.6
2019-06-27T04:24:43.358Z,1017.64
2019-06-27T04:25:23.837Z,1017.61
2019-06-27T04:26:06.081Z,1017.62
2019-06-27T04:26:46.555Z,1017.61
2019-06-27T04:27:27.067Z,1017.6
2019-06-27T04:28:07.524Z,1017.59
2019-06-27T05:09:29.064Z,1017.85
2019-06-27T05:10:09.519Z,1017.84
2019-06-27T05:10:50.868Z,1017.87
2019-06-27T05:11:31.371Z,1017.87
2019-06-27T05:12:11.808Z,1017.95
2019-06-27T05:12:52.329Z,1017.92
2019-06-27T05:13:32.785Z,1017.96
2019-06-27T05:14:53.718Z,1017.93
2019-06-27T05:15:34.205Z,1017.94
2019-06-27T05:16:14.646Z,1017.99
2019-06-27T05:16:55.182Z,1017.97
2019-06-27T05:17:35.723Z,1018
2019-06-27T05:18:16.194Z,1017.95
2019-06-27T05:18:56.698Z,1017.94
2019-06-27T05:19:37.629Z,1017.95
2019-06-27T05:20:18.305Z,1017.96
2019-06-27T05:20:58.729Z,1017.99
2019-06-27T05:21:40.082Z,1018.01
2019-06-27T05:22:20.762Z,1018.03
2019-06-27T05:23:02.673Z,1018.02
2019-06-27T05:23:43.144Z,1018.05
2019-06-27T05:24:23.793Z,1018.1
2019-06-27T05:25:04.245Z,1018.05
2019-06-27T05:25:44.758Z,1018.12
2019-06-27T05:26:25.306Z,1018.01
2019-06-27T05:27:05.740Z,1017.97
2019-06-27T05:27:46.212Z,1018.08
2019-06-27T05:28:26.659Z,1018.08
2019-06-27T05:29:07.152Z,1018.1
2019-06-27T05:29:47.680Z,1018.12
2019-06-27T05:30:28.168Z,1018.13
2019-06-27T05:31:08.650Z,1018.06
2019-06-27T05:31:49.100Z,1018.07
2019-06-27T05:32:29.615Z,1018.11
2019-06-27T05:33:10.423Z,1018.11
2019-06-27T05:33:50.923Z,1018.12
2019-06-27T05:34:31.390Z,1018.09
2019-06-27T05:35:11.868Z,1018.12
2019-06-27T05:35:53.318Z,1018.12
2019-06-27T05:36:35.360Z,1018.17
2019-06-27T05:37:18.201Z,1018.18
2019-06-27T05:38:39.247Z,1018.19
2019-06-27T05:39:19.710Z,1018.2
2019-06-27T05:40:00.189Z,1018.21
2019-06-27T05:40:40.716Z,1018.18
2019-06-27T05:41:21.164Z,1018.18
2019-06-27T05:42:01.895Z,1018.24
2019-06-27T05:42:42.406Z,1018.2
2019-06-27T05:43:22.852Z,1018.24
2019-06-27T05:44:03.357Z,1018.25
2019-06-27T05:44:43.809Z,1018.28
2019-06-27T05:45:24.301Z,1018.29
2019-06-27T05:46:04.701Z,1018.27
2019-06-27T05:46:45.319Z,1018.3
2019-06-27T05:47:25.785Z,1018.26
2019-06-27T05:48:06.320Z,1018.22
2019-06-27T05:48:46.920Z,1018.25
2019-06-27T05:49:27.426Z,1018.3
2019-06-27T05:50:07.985Z,1018.3
2019-06-27T05:50:49.002Z,1018.3
2019-06-27T05:51:29.620Z,1018.29
2019-06-27T05:52:10.372Z,1018.3
2019-06-27T05:52:50.827Z,1018.27
2019-06-27T05:53:32.220Z,1018.38
2019-06-27T05:54:13.068Z,1018.33
2019-06-27T05:54:53.563Z,1018.36
2019-06-27T05:55:34.611Z,1018.33
2019-06-27T05:56:15.776Z,1018.37
2019-06-27T05:57:00.158Z,1018.34
2019-06-27T05:58:40.188Z,1018.29
2019-06-27T05:59:20.977Z,1018.34
2019-06-27T06:00:01.909Z,1018.32
2019-06-27T06:00:44.162Z,1018.29
2019-06-27T06:01:24.650Z,1018.4
2019-06-27T06:02:05.949Z,1018.36
2019-06-27T06:02:46.464Z,1018.33
2019-06-27T06:03:27.149Z,1018.35
2019-06-27T06:04:07.725Z,1018.32
2019-06-27T06:04:49.806Z,1018.43
2019-06-27T06:05:30.310Z,1018.43
2019-06-27T06:06:12.544Z,1018.38
2019-06-27T06:06:52.937Z,1018.34
2019-06-27T06:07:33.385Z,1018.31
2019-06-27T06:08:16.489Z,1018.31
2019-06-27T06:08:57.094Z,1018.31
2019-06-27T06:09:37.600Z,1018.34
2019-06-27T06:10:18.072Z,1018.43
2019-06-27T06:10:58.700Z,1018.41
2019-06-27T06:11:39.169Z,1018.38
2019-06-27T06:12:24.841Z,1018.46
2019-06-27T06:13:05.362Z,1018.45
2019-06-27T06:14:07.025Z,1018.33
2019-06-27T06:17:54.115Z,1018.41
2019-06-27T06:18:34.774Z,1018.45
2019-06-27T06:19:15.102Z,1018.44
2019-06-27T06:19:56.896Z,1018.42
2019-06-27T06:20:37.449Z,1018.45
2019-06-27T06:21:17.968Z,1018.37
2019-06-27T06:22:39.821Z,1018.41
2019-06-27T06:23:20.279Z,1018.35
2019-06-27T06:24:02.425Z,1018.36
2019-06-27T06:24:44.539Z,1018.35
2019-06-27T06:25:25.016Z,1018.39
2019-06-27T06:26:05.782Z,1018.37
2019-06-27T06:26:46.426Z,1018.38
2019-06-27T06:27:27.250Z,1018.38
2019-06-27T06:28:07.515Z,1018.35
2019-06-27T06:28:48.162Z,1018.36
2019-06-27T06:29:29.481Z,1018.37
2019-06-27T06:30:09.829Z,1018.37
2019-06-27T06:30:51.883Z,1018.41
2019-06-27T06:31:31.906Z,1018.4
2019-06-27T06:32:12.225Z,1018.39
2019-06-27T06:32:52.886Z,1018.38
2019-06-27T06:33:33.381Z,1018.35
2019-06-27T06:34:13.854Z,1018.35
2019-06-27T06:34:54.381Z,1018.41
2019-06-27T06:35:34.798Z,1018.39
2019-06-27T06:36:15.682Z,1018.41
2019-06-27T06:36:58.073Z,1018.38
2019-06-27T06:37:40.010Z,1018.34
2019-06-27T06:38:20.423Z,1018.35
2019-06-27T06:39:01.360Z,1018.33
2019-06-27T06:39:41.887Z,1018.38
2019-06-27T06:40:21.975Z,1018.4
2019-06-27T06:41:03.379Z,1018.34
2019-06-27T06:41:44.990Z,1018.4
2019-06-27T06:42:26.061Z,1018.39
2019-06-27T06:43:06.870Z,1018.39
2019-06-27T06:43:47.367Z,1018.36
2019-06-27T06:44:29.646Z,1018.39
2019-06-27T06:45:10.324Z,1018.41
2019-06-27T06:45:51.211Z,1018.45
2019-06-27T06:46:32.398Z,1018.45
2019-06-27T06:47:12.772Z,1018.46
2019-06-27T06:47:56.777Z,1018.46
2019-06-27T06:48:37.894Z,1018.41
2019-06-27T06:49:18.739Z,1018.4
2019-06-27T06:50:00.003Z,1018.37
2019-06-27T06:50:40.884Z,1018.47
2019-06-27T06:51:22.000Z,1018.47
2019-06-27T06:52:02.783Z,1018.48
2019-06-27T06:52:47.526Z,1018.52
2019-06-27T06:53:29.486Z,1018.51
2019-06-27T06:54:11.926Z,1018.49
2019-06-27T06:54:54.390Z,1018.46
2019-06-27T06:55:35.965Z,1018.4
2019-06-27T06:56:16.249Z,1018.44
2019-06-27T06:56:56.978Z,1018.44
2019-06-27T06:57:37.915Z,1018.42
2019-06-27T06:58:20.891Z,1018.42
2019-06-27T06:59:01.248Z,1018.4
2019-06-27T06:59:42.090Z,1018.44
2019-06-27T07:00:24.577Z,1018.47
2019-06-27T07:01:07.891Z,1018.5
2019-06-27T07:01:48.748Z,1018.57
2019-06-27T07:02:29.527Z,1018.53
2019-06-27T07:03:10.464Z,1018.5
2019-06-27T07:03:52.001Z,1018.5
2019-06-27T07:04:32.244Z,1018.52
2019-06-27T07:05:14.393Z,1018.53
2019-06-27T07:05:54.850Z,1018.54
2019-06-27T07:06:35.608Z,1018.47
2019-06-27T07:07:20.034Z,1018.54
2019-06-27T07:08:00.811Z,1018.6
2019-06-27T07:08:41.700Z,1018.6
2019-06-27T07:09:24.548Z,1018.58
2019-06-27T07:10:05.939Z,1018.56
2019-06-27T07:10:46.677Z,1018.58
2019-06-27T07:11:27.393Z,1018.59
2019-06-27T07:12:08.268Z,1018.57
2019-06-27T07:12:49.982Z,1018.62
2019-06-27T07:13:32.028Z,1018.61
2019-06-27T07:14:14.974Z,1018.6
2019-06-27T07:14:55.648Z,1018.59
2019-06-27T07:15:36.462Z,1018.6
2019-06-27T07:16:18.141Z,1018.58
2019-06-27T07:16:59.496Z,1018.61
2019-06-27T07:17:40.933Z,1018.64
2019-06-27T07:18:21.906Z,1018.64
2019-06-27T07:19:02.595Z,1018.65
2019-06-27T07:19:46.713Z,1018.59
2019-06-27T07:20:27.441Z,1018.61
2019-06-27T07:21:08.671Z,1018.6
2019-06-27T07:21:50.281Z,1018.61
2019-06-27T07:22:31.112Z,1018.59
2019-06-27T07:23:12.089Z,1018.63
2019-06-27T07:23:53.456Z,1018.65
2019-06-27T07:24:33.963Z,1018.65
2019-06-27T07:25:14.468Z,1018.64
2019-06-27T07:25:55.898Z,1018.65
2019-06-27T07:26:37.035Z,1018.68
2019-06-27T07:27:16.796Z,1018.63
2019-06-27T07:27:57.539Z,1018.64
2019-06-27T07:28:38.226Z,1018.62
2019-06-27T07:29:19.556Z,1018.66
2019-06-27T07:29:59.508Z,1018.62
2019-06-27T07:30:40.914Z,1018.64
2019-06-27T07:31:21.328Z,1018.62
2019-06-27T07:32:02.936Z,1018.62
2019-06-27T07:32:44.455Z,1018.59
2019-06-27T07:33:25.339Z,1018.62
2019-06-27T07:34:06.584Z,1018.61
2019-06-27T07:34:47.324Z,1018.66
2019-06-27T07:35:28.009Z,1018.63
2019-06-27T07:36:08.890Z,1018.64
2019-06-27T07:36:49.606Z,1018.62
2019-06-27T07:37:30.428Z,1018.59
2019-06-27T07:38:10.798Z,1018.62
2019-06-27T07:38:51.386Z,1018.56
2019-06-27T07:39:32.918Z,1018.55
2019-06-27T07:40:13.313Z,1018.56
2019-06-27T07:42:11.320Z,1018.58
2019-06-27T07:42:53.058Z,1018.61
2019-06-27T07:43:33.085Z,1018.62
2019-06-27T07:44:13.828Z,1018.65
2019-06-27T07:44:54.816Z,1018.62
2019-06-27T07:45:35.987Z,1018.64
2019-06-27T07:46:24.899Z,1018.66
2019-06-27T07:46:57.136Z,1018.63
2019-06-27T07:47:38.060Z,1018.6
2019-06-27T07:48:18.775Z,1018.61
2019-06-27T07:48:59.621Z,1018.65
2019-06-27T07:49:40.477Z,1018.62
2019-06-27T07:50:21.493Z,1018.58
2019-06-27T07:51:03.028Z,1018.57
2019-06-27T07:51:43.005Z,1018.62
2019-06-27T07:53:05.971Z,1018.62
2019-06-27T07:53:46.256Z,1018.62
2019-06-27T07:54:26.938Z,1018.66
2019-06-27T07:55:10.472Z,1018.67
2019-06-27T07:55:51.255Z,1018.63
2019-06-27T07:56:31.697Z,1018.65
2019-06-27T07:57:12.203Z,1018.63
2019-06-27T07:57:52.888Z,1018.66
2019-06-27T07:58:34.474Z,1018.6
2019-06-27T07:59:14.530Z,1018.65
2019-06-27T07:59:55.136Z,1018.65
2019-06-27T08:00:35.693Z,1018.65
2019-06-27T08:01:16.264Z,1018.66
2019-06-27T08:01:57.227Z,1018.65
2019-06-27T08:02:38.102Z,1018.68
2019-06-27T08:03:18.634Z,1018.62
2019-06-27T08:03:59.461Z,1018.69
2019-06-27T08:04:40.363Z,1018.66
2019-06-27T08:05:20.990Z,1018.6
2019-06-27T08:06:01.793Z,1018.61
2019-06-27T08:06:43.015Z,1018.56
2019-06-27T08:07:23.572Z,1018.65
2019-06-27T08:08:04.329Z,1018.59
2019-06-27T08:08:45.122Z,1018.61
2019-06-27T08:09:25.990Z,1018.64
2019-06-27T08:10:06.876Z,1018.63
2019-06-27T08:10:48.945Z,1018.63
2019-06-27T08:11:30.873Z,1018.66
2019-06-27T08:12:11.634Z,1018.61
2019-06-27T08:12:53.742Z,1018.66
2019-06-27T08:13:35.498Z,1018.62
2019-06-27T08:14:17.347Z,1018.64
2019-06-27T08:14:58.181Z,1018.63
2019-06-27T08:15:39.336Z,1018.69
2019-06-27T08:16:20.335Z,1018.62
2019-06-27T08:17:01.030Z,1018.67
2019-06-27T08:17:41.458Z,1018.65
2019-06-27T08:18:22.088Z,1018.62
2019-06-27T08:19:02.668Z,1018.66
2019-06-27T08:19:45.085Z,1018.72
2019-06-27T08:21:59.764Z,1018.65
2019-06-27T08:22:40.447Z,1018.67
2019-06-27T08:23:21.681Z,1018.65
2019-06-27T08:24:02.776Z,1018.62
2019-06-27T08:24:43.983Z,1018.65
2019-06-27T08:25:24.609Z,1018.62
2019-06-27T08:26:05.140Z,1018.61
2019-06-27T08:28:03.576Z,1018.62
2019-06-27T08:28:44.043Z,1018.63
2019-06-27T08:29:24.749Z,1018.62
2019-06-27T08:30:08.375Z,1018.59
2019-06-27T08:30:47.473Z,1018.57
2019-06-27T08:31:28.863Z,1018.58
2019-06-27T08:32:09.333Z,1018.6
2019-06-27T08:32:49.935Z,1018.58
2019-06-27T08:33:30.443Z,1018.61
2019-06-27T08:34:11.009Z,1018.58
2019-06-27T08:34:51.469Z,1018.59
2019-06-27T08:35:33.584Z,1018.61
2019-06-27T08:36:13.305Z,1018.57
2019-06-27T08:36:53.842Z,1018.59
2019-06-27T08:37:34.408Z,1018.58
2019-06-27T08:38:15.623Z,1018.59
2019-06-27T08:38:56.174Z,1018.56
2019-06-27T08:39:36.890Z,1018.59
2019-06-27T08:40:17.250Z,1018.56
2019-06-27T08:40:57.741Z,1018.59
2019-06-27T08:41:38.599Z,1018.6
2019-06-27T08:42:19.182Z,1018.61
2019-06-27T08:43:00.345Z,1018.6
2019-06-27T08:43:40.876Z,1018.59
2019-06-27T08:44:21.435Z,1018.6
2019-06-27T08:45:02.142Z,1018.58
2019-06-27T08:45:42.693Z,1018.54
2019-06-27T08:46:24.078Z,1018.58
2019-06-27T08:47:04.649Z,1018.59
2019-06-27T08:47:45.154Z,1018.6
2019-06-27T08:48:25.652Z,1018.61
2019-06-27T08:49:06.144Z,1018.64
2019-06-27T08:49:46.645Z,1018.63
2019-06-27T08:50:27.167Z,1018.63
2019-06-27T08:51:07.681Z,1018.59
2019-06-27T08:51:48.191Z,1018.63
2019-06-27T08:52:28.735Z,1018.64
2019-06-27T08:54:56.812Z,1018.65
2019-06-27T08:55:37.419Z,1018.67
2019-06-27T08:56:17.913Z,1018.59
2019-06-27T08:56:58.414Z,1018.66
2019-06-27T08:57:38.973Z,1018.62
2019-06-27T08:58:19.365Z,1018.66
2019-06-27T08:58:59.898Z,1018.63
2019-06-27T08:59:40.332Z,1018.69
2019-06-27T09:00:21.129Z,1018.63
2019-06-27T09:01:01.597Z,1018.64
2019-06-27T09:01:42.417Z,1018.66
2019-06-27T09:02:23.013Z,1018.63
2019-06-27T09:03:03.522Z,1018.66
2019-06-27T09:03:44.082Z,1018.65
2019-06-27T09:04:24.750Z,1018.6
2019-06-27T09:05:05.490Z,1018.58
2019-06-27T09:05:45.953Z,1018.57
2019-06-27T09:06:27.473Z,1018.61
2019-06-27T09:07:07.990Z,1018.56
2019-06-27T09:07:48.528Z,1018.56
2019-06-27T09:08:28.998Z,1018.55
2019-06-27T09:09:10.541Z,1018.57
2019-06-27T09:09:51.334Z,1018.56
2019-06-27T09:10:32.853Z,1018.58
2019-06-27T09:11:15.178Z,1018.58
2019-06-27T09:11:55.661Z,1018.52
2019-06-27T09:12:36.180Z,1018.55
2019-06-27T09:13:17.289Z,1018.58
2019-06-27T09:13:57.704Z,1018.58
2019-06-27T09:14:38.305Z,1018.58
2019-06-27T09:15:18.788Z,1018.57
2019-06-27T09:22:18.506Z,1018.51
2019-06-27T09:22:58.983Z,1018.5